Neder Holluf, Denmark
Current Conditions -  °F | °C
As of 10:20 PM on Thursday 18 Dec 2014 (Local Time) from EKSB Reporting Station
Light Rain Light Rain  
Wind Chill: 52°   Ceiling: 800
Heat Index: 52°   Visibility: 5mi
Dew Point: 50°   Wind: 21mph
Humidity: 94%   Direction: 250°WSW
Pressure: 29.44"   Gusts: 35mph
Location:  55.36°N, 10.45°E
Report Text: EKSB 182120Z 25018G30KT 8000 -RA BKN008 11/10 Q0997
Loading
Personal Weather Stations






























Interactive Weather Map New forecast layout! Learn more

10-Day Weather Forecast

Advertisements
Track Severe Weather on mobile